Terminal Aerodrome Forecast
Issued by NWS

Home | Current Version | Previous Version | Text Only | Print | Product List | Glossary On
Versions: 1 2 3 4 5 6 7 8 9 10 11 12
000
FTUS46 KLOX 261100
TAFVNY
TAF
KVNY 261130Z 2612/2712 VRB03KT P6SM BKN150
     FM261800 15010KT P6SM BKN150
     FM270300 VRB03KT P6SM SCT150=

USA.gov is the U.S. government's official web portal to all federal, state and local government web resources and services.